Time;durP1;ratioP1;P1;durP2;ratioP2;P2;SDS_P1;SDS_P2;PMS_P1;PMS_P2;Temp;Humidity;BMP_temperature;BMP_pressure;BME280_temperature;BME280_humidity;BME280_pressure;Samples;Min_cycle;Max_cycle;Signal;HPM_P1;HPM_P2
2022/01/22 00:00:18;;;;;;;10.73;7.57;;;4.60;93.70;;;;;;5092656;28;20098;-81
2022/01/22 00:02:45;;;;;;;15.93;9.32;;;4.60;93.80;;;;;;5075369;28;20036;-81
2022/01/22 00:05:12;;;;;;;6.10;5.50;;;4.60;93.80;;;;;;5091532;28;20454;-81
2022/01/22 00:07:38;;;;;;;13.77;11.25;;;4.60;93.70;;;;;;5093326;28;20040;-80
2022/01/22 00:10:12;;;;;;;12.13;7.68;;;4.60;93.60;;;;;;5093057;28;20477;-81
2022/01/22 00:15:06;;;;;;;7.88;6.28;;;4.70;93.40;;;;;;5074376;28;20047;-78
2022/01/22 00:17:32;;;;;;;13.15;9.10;;;4.70;93.10;;;;;;5074833;28;20051;-79
2022/01/22 00:19:59;;;;;;;9.70;7.03;;;4.60;93.10;;;;;;5092514;28;20032;-83
2022/01/22 00:22:29;;;;;;;13.45;8.27;;;4.60;93.00;;;;;;5093087;28;20035;-80
2022/01/22 00:24:58;;;;;;;10.43;7.70;;;4.60;93.00;;;;;;5093027;28;20028;-79
2022/01/22 00:27:26;;;;;;;5.53;4.70;;;4.50;93.20;;;;;;5074740;28;20388;-80
2022/01/22 00:29:53;;;;;;;11.98;10.10;;;4.50;93.40;;;;;;5093228;28;20032;-79
2022/01/22 00:32:19;;;;;;;13.38;6.68;;;4.40;93.30;;;;;;5092535;28;20227;-79
2022/01/22 00:34:45;;;;;;;6.75;5.53;;;4.50;93.30;;;;;;5092632;28;20031;-79
2022/01/22 00:37:12;;;;;;;8.40;5.32;;;4.50;93.50;;;;;;5074527;28;20028;-79
2022/01/22 00:39:38;;;;;;;9.25;5.25;;;4.50;93.60;;;;;;5092996;28;20043;-79
2022/01/22 00:42:10;;;;;;;9.98;5.45;;;4.50;93.70;;;;;;5091377;28;20114;-79
2022/01/22 00:44:37;;;;;;;6.70;5.55;;;4.60;93.60;;;;;;5092715;28;20036;-80
2022/01/22 00:47:04;;;;;;;6.82;5.90;;;4.60;93.50;;;;;;5073411;28;20051;-79
2022/01/22 00:49:34;;;;;;;6.95;5.80;;;4.70;93.20;;;;;;5092835;28;20477;-79
2022/01/22 00:52:00;;;;;;;7.57;5.20;;;4.60;93.00;;;;;;5074224;28;20388;-79
2022/01/22 00:54:26;;;;;;;7.95;5.47;;;4.60;92.80;;;;;;5092833;28;20024;-79
2022/01/22 00:56:52;;;;;;;11.82;3.90;;;4.60;92.90;;;;;;5092690;28;20119;-79
2022/01/22 00:59:19;;;;;;;5.60;4.10;;;4.60;92.90;;;;;;5073917;28;20024;-77
2022/01/22 01:01:45;;;;;;;6.28;5.25;;;4.60;92.70;;;;;;5092606;28;20472;-81
2022/01/22 01:04:11;;;;;;;8.93;5.35;;;4.60;92.80;;;;;;5091976;28;20031;-81
2022/01/22 01:06:39;;;;;;;7.68;5.47;;;4.60;93.10;;;;;;5091998;28;20028;-80
2022/01/22 01:09:08;;;;;;;6.75;5.05;;;4.60;93.30;;;;;;5073278;28;20044;-79
2022/01/22 01:11:40;;;;;;;10.40;5.68;;;4.50;93.50;;;;;;5057029;28;20060;-79
2022/01/22 01:14:10;;;;;;;7.10;6.05;;;4.50;93.70;;;;;;5072996;28;20043;-80
2022/01/22 01:16:56;;;;;;;10.70;6.10;;;4.60;94.00;;;;;;5073759;28;20044;-80
2022/01/22 01:32:11;;;;;;;7.32;5.18;;;4.60;93.50;;;;;;5091950;28;20039;-80
2022/01/22 01:33:35;;;;;;;9.00;6.47;;;4.60;93.50;;;;;;5089091;28;20040;-81
2022/01/22 01:36:02;;;;;;;8.88;4.95;;;4.60;93.60;;;;;;5073905;28;20051;-81
2022/01/22 01:38:29;;;;;;;6.97;6.18;;;4.60;93.90;;;;;;5073552;28;20028;-80
2022/01/22 01:41:05;;;;;;;11.05;6.05;;;4.60;93.80;;;;;;5073765;28;20366;-81
2022/01/22 01:43:35;;;;;;;8.50;6.57;;;4.60;94.00;;;;;;5092299;28;20028;-81
2022/01/22 01:46:34;;;;;;;9.90;6.35;;;4.70;94.20;;;;;;5076551;28;20047;-81
2022/01/22 01:49:03;;;;;;;8.05;5.88;;;4.60;94.40;;;;;;5075875;28;20504;-80
2022/01/22 01:51:32;;;;;;;8.65;6.35;;;4.60;94.20;;;;;;5092197;28;20035;-79
2022/01/22 01:54:08;;;;;;;10.10;7.45;;;4.70;94.00;;;;;;5074536;28;20040;-79
2022/01/22 01:59:19;;;;;;;6.63;5.97;;;4.70;94.10;;;;;;5074195;28;20064;-79
2022/01/22 02:01:46;;;;;;;8.13;5.97;;;4.70;94.10;;;;;;5073726;28;20044;-80
2022/01/22 02:04:14;;;;;;;10.32;7.40;;;4.70;94.00;;;;;;5072814;28;20504;-80
2022/01/22 02:06:41;;;;;;;7.70;6.45;;;4.70;94.20;;;;;;5073346;28;20043;-79
2022/01/22 02:09:09;;;;;;;14.10;6.20;;;4.70;94.20;;;;;;5072674;28;20044;-79
2022/01/22 02:11:39;;;;;;;10.57;5.82;;;4.70;94.00;;;;;;5072877;28;20048;-78
2022/01/22 02:25:32;;;;;;;8.35;6.72;;;4.70;94.60;;;;;;5075948;28;20381;-78
2022/01/22 02:28:01;;;;;;;8.50;6.53;;;4.60;94.60;;;;;;5093993;28;20070;-79
2022/01/22 02:30:33;;;;;;;8.57;6.70;;;4.60;94.70;;;;;;5076123;28;20047;-79
2022/01/22 02:33:33;;;;;;;;;;;4.60;94.70;;;;;;5076346;28;20044;-79
2022/01/22 02:36:14;;;;;;;9.38;6.40;;;4.60;94.90;;;;;;5076701;28;19915;-79
2022/01/22 02:41:51;;;;;;;7.68;5.95;;;4.60;94.80;;;;;;5015728;28;20038;-79
2022/01/22 02:44:44;;;;;;;8.15;6.72;;;4.60;94.80;;;;;;5069448;28;20040;-80
2022/01/22 02:47:15;;;;;;;9.98;6.30;;;4.60;94.60;;;;;;5059762;28;20040;-80
2022/01/22 02:49:42;;;;;;;5.93;5.32;;;4.60;94.30;;;;;;5076442;28;20040;-81
2022/01/22 02:52:11;;;;;;;6.20;4.95;;;4.60;93.90;;;;;;5075734;28;20039;-81
2022/01/22 02:54:40;;;;;;;6.88;6.18;;;4.60;93.90;;;;;;5076414;28;20036;-79
2022/01/22 02:57:08;;;;;;;7.65;6.25;;;4.60;93.80;;;;;;5076367;28;20048;-80
2022/01/22 02:59:36;;;;;;;6.15;5.60;;;4.60;93.70;;;;;;5076246;28;20043;-80
2022/01/22 03:02:03;;;;;;;5.57;4.95;;;4.60;93.60;;;;;;5059425;28;20032;-79
2022/01/22 03:04:30;;;;;;;11.55;6.72;;;4.60;93.40;;;;;;5075420;28;20040;-78
2022/01/22 03:06:57;;;;;;;14.48;6.93;;;4.60;93.20;;;;;;5094052;28;20047;-80
2022/01/22 03:09:28;;;;;;;7.72;6.95;;;4.70;93.10;;;;;;5075280;28;20077;-80
2022/01/22 03:18:17;;;;;;;8.00;6.43;;;4.60;93.00;;;;;;5075268;28;20388;-81
2022/01/22 03:20:34;;;;;;;7.82;5.95;;;4.60;93.20;;;;;;5080167;28;20036;-79
2022/01/22 03:23:08;;;;;;;8.18;7.13;;;4.60;93.00;;;;;;5092853;28;20040;-79
2022/01/22 03:28:25;;;;;;;6.65;5.60;;;4.70;93.10;;;;;;5093287;28;20051;-80
2022/01/22 03:30:51;;;;;;;6.88;5.82;;;4.70;92.90;;;;;;5091461;28;20040;-80
2022/01/22 03:33:22;;;;;;;9.55;6.28;;;4.60;92.90;;;;;;5071544;28;20362;-80
2022/01/22 03:35:54;;;;;;;12.30;6.45;;;4.60;93.00;;;;;;5056094;28;20047;-80
2022/01/22 03:38:22;;;;;;;14.07;5.80;;;4.60;93.00;;;;;;5054606;28;20488;-80
2022/01/22 03:40:50;;;;;;;6.57;5.95;;;4.70;93.00;;;;;;5073387;28;20052;-80
2022/01/22 03:43:17;;;;;;;6.35;5.68;;;4.70;93.00;;;;;;5073082;28;20051;-81
2022/01/22 03:45:46;;;;;;;11.77;6.13;;;4.60;92.90;;;;;;5055586;28;20075;-80
2022/01/22 03:48:13;;;;;;;14.38;6.25;;;4.60;92.80;;;;;;5054605;28;20396;-81
2022/01/22 03:50:39;;;;;;;6.97;6.28;;;4.60;93.00;;;;;;5073537;28;20032;-80
2022/01/22 03:53:06;;;;;;;9.65;5.93;;;4.60;93.10;;;;;;5054950;28;20041;-82
2022/01/22 03:55:45;;;;;;;9.13;6.05;;;4.60;93.00;;;;;;5072963;28;20378;-80
2022/01/22 03:58:40;;;;;;;15.95;5.72;;;4.70;93.10;;;;;;5066839;28;20055;-80
2022/01/22 04:04:12;;;;;;;11.18;6.70;;;4.60;93.00;;;;;;5054776;28;20401;-80
2022/01/22 04:07:21;;;;;;;8.90;6.53;;;4.60;92.80;;;;;;5054773;28;20144;-79
2022/01/22 04:09:39;;;;;;;10.15;5.50;;;4.60;92.90;;;;;;5053270;28;20056;-79
2022/01/22 04:12:06;;;;;;;10.10;5.65;;;4.60;92.80;;;;;;5054881;28;20051;-79
2022/01/22 04:14:35;;;;;;;8.40;5.97;;;4.60;92.60;;;;;;5054522;28;20301;-79
2022/01/22 04:25:04;;;;;;;13.18;5.05;;;4.60;92.50;;;;;;5073250;28;20032;-79
2022/01/22 04:27:30;;;;;;;6.70;5.18;;;4.60;92.30;;;;;;5072354;28;20457;-80
2022/01/22 04:29:59;;;;;;;9.75;6.30;;;4.60;92.30;;;;;;5054696;28;20040;-80
2022/01/22 04:32:30;;;;;;;6.90;5.50;;;4.60;92.50;;;;;;5072307;28;20033;-79
2022/01/22 04:34:56;;;;;;;7.15;5.45;;;4.60;92.30;;;;;;5073125;28;20021;-80
2022/01/22 04:37:24;;;;;;;10.07;5.82;;;4.60;92.60;;;;;;5054023;28;20043;-80
2022/01/22 04:39:51;;;;;;;22.27;6.50;;;4.60;92.30;;;;;;5072179;28;20359;-80
2022/01/22 04:42:19;;;;;;;7.80;5.70;;;4.60;92.20;;;;;;5072232;28;20032;-81
2022/01/22 04:45:04;;;;;;;6.53;5.95;;;4.60;92.30;;;;;;5054484;28;20048;-80
2022/01/22 04:54:57;;;;;;;6.68;5.90;;;4.60;92.80;;;;;;5054055;28;20037;-80
2022/01/22 04:55:30;;;;;;;7.47;6.47;;;4.50;92.80;;;;;;5053888;28;20036;-79
2022/01/22 04:57:57;;;;;;;6.80;5.80;;;4.60;92.80;;;;;;5073029;28;20048;-80
2022/01/22 05:00:25;;;;;;;7.05;5.35;;;4.60;92.70;;;;;;5071695;28;20070;-80
2022/01/22 05:03:16;;;;;;;7.47;6.13;;;4.60;92.70;;;;;;5054553;28;20048;-79
2022/01/22 05:06:06;;;;;;;10.75;5.40;;;4.60;92.50;;;;;;5070567;28;20119;-79
2022/01/22 05:09:06;;;;;;;6.93;5.65;;;4.60;92.70;;;;;;5053997;28;20041;-80
2022/01/22 05:11:47;;;;;;;9.02;6.45;;;4.60;92.60;;;;;;5054390;28;20040;-80
2022/01/22 05:14:14;;;;;;;9.00;6.25;;;4.60;92.50;;;;;;5037994;28;20047;-79
2022/01/22 05:16:41;;;;;;;8.98;5.45;;;4.60;92.70;;;;;;5053319;28;20059;-80
2022/01/22 05:19:20;;;;;;;6.03;5.43;;;4.60;92.40;;;;;;5037685;28;20055;-80
2022/01/22 05:21:49;;;;;;;12.13;6.05;;;4.70;92.20;;;;;;5054001;28;20474;-79
2022/01/22 05:24:20;;;;;;;7.75;5.45;;;4.70;92.20;;;;;;5071977;28;20032;-80
2022/01/22 05:32:32;;;;;;;12.50;5.82;;;4.80;91.90;;;;;;5053454;28;20047;-80
2022/01/22 05:38:07;;;;;;;8.35;6.80;;;4.80;91.90;;;;;;5053226;28;20402;-79
2022/01/22 05:40:35;;;;;;;10.98;5.72;;;4.90;91.90;;;;;;5053859;28;20393;-79
2022/01/22 05:43:04;;;;;;;8.55;6.55;;;4.80;91.70;;;;;;5072096;28;20028;-79
2022/01/22 05:45:30;;;;;;;10.15;5.80;;;4.80;91.80;;;;;;5071196;28;20044;-80
2022/01/22 05:47:56;;;;;;;9.15;5.82;;;4.80;91.90;;;;;;5071960;28;20033;-82
2022/01/22 05:50:32;;;;;;;11.95;6.07;;;4.80;92.00;;;;;;5071619;28;20028;-79
2022/01/22 05:53:04;;;;;;;6.82;6.07;;;4.80;91.90;;;;;;5075551;28;20028;-79
2022/01/22 06:00:52;;;;;;;10.82;6.20;;;4.80;91.90;;;;;;5057926;28;20037;-81
2022/01/22 06:03:29;;;;;;;9.07;5.40;;;4.80;91.90;;;;;;5056754;28;20385;-80
2022/01/22 06:05:57;;;;;;;7.47;5.90;;;4.80;92.00;;;;;;5057246;28;20118;-81
2022/01/22 06:08:30;;;;;;;4.90;4.28;;;4.80;92.10;;;;;;5057026;28;20088;-82
2022/01/22 06:10:59;;;;;;;6.05;4.95;;;4.80;92.00;;;;;;5057522;28;20060;-81
2022/01/22 06:13:43;;;;;;;13.60;5.18;;;4.80;92.00;;;;;;5056902;28;20052;-82
2022/01/22 06:16:22;;;;;;;11.90;5.47;;;4.80;92.00;;;;;;5059595;28;20047;-81
2022/01/22 06:19:27;;;;;;;8.45;4.80;;;4.80;92.30;;;;;;5038220;28;20049;-82
2022/01/22 06:21:54;;;;;;;9.50;5.40;;;4.70;92.10;;;;;;5017908;28;20133;-81
2022/01/22 06:24:22;;;;;;;8.60;4.70;;;4.70;92.30;;;;;;5052473;28;20040;-82
2022/01/22 06:26:48;;;;;;;8.98;5.53;;;4.80;92.20;;;;;;5057214;28;20036;-81
2022/01/22 06:29:15;;;;;;;7.05;4.38;;;4.80;92.30;;;;;;5057087;28;20085;-81
2022/01/22 06:31:43;;;;;;;4.88;4.03;;;4.80;92.30;;;;;;5056518;28;20049;-81
2022/01/22 06:34:10;;;;;;;6.18;5.18;;;4.80;92.20;;;;;;5057179;28;20470;-81
2022/01/22 06:36:39;;;;;;;6.07;5.13;;;4.80;92.20;;;;;;5056241;28;20045;-81
2022/01/22 06:41:56;;;;;;;5.15;4.40;;;4.80;92.30;;;;;;5074988;28;20382;-81
2022/01/22 06:44:40;;;;;;;9.02;5.25;;;4.80;92.30;;;;;;5074987;28;20036;-82
2022/01/22 06:47:25;;;;;;;6.22;5.53;;;4.80;92.30;;;;;;5074384;28;20040;-81
2022/01/22 06:50:10;;;;;;;6.22;4.90;;;4.80;92.40;;;;;;5056932;28;20036;-81
2022/01/22 06:52:46;;;;;;;7.03;4.00;;;4.80;92.20;;;;;;5074629;28;20043;-80
2022/01/22 06:58:23;;;;;;;6.60;3.92;;;4.80;92.00;;;;;;5037819;28;20056;-83
2022/01/22 07:01:02;;;;;;;4.70;4.03;;;4.80;91.90;;;;;;5056398;28;20040;-81
2022/01/22 07:03:39;;;;;;;6.47;4.10;;;4.80;92.00;;;;;;5073553;28;20037;-82
2022/01/22 07:06:31;;;;;;;5.45;4.95;;;4.80;92.00;;;;;;5070925;28;20497;-82
2022/01/22 07:08:58;;;;;;;8.18;4.07;;;4.80;92.10;;;;;;5056321;28;20043;-82
2022/01/22 07:11:25;;;;;;;9.32;4.22;;;4.80;92.10;;;;;;5056096;28;20055;-82
2022/01/22 07:13:51;;;;;;;4.93;4.03;;;4.80;92.20;;;;;;5056364;28;20493;-82
2022/01/22 07:16:18;;;;;;;11.50;4.60;;;4.80;92.10;;;;;;5056394;28;20377;-81
2022/01/22 07:18:52;;;;;;;4.90;3.97;;;4.90;91.90;;;;;;5072533;28;20478;-81
2022/01/22 07:21:20;;;;;;;6.38;4.80;;;4.90;92.00;;;;;;5055712;28;20393;-81
2022/01/22 07:26:25;;;;;;;4.80;3.72;;;4.90;92.20;;;;;;5055423;28;20037;-82
2022/01/22 07:28:59;;;;;;;4.40;3.78;;;4.90;92.10;;;;;;5072473;28;20063;-82
2022/01/22 07:31:27;;;;;;;6.57;4.63;;;4.90;92.10;;;;;;5055318;28;20393;-82
2022/01/22 07:33:56;;;;;;;6.20;4.57;;;4.90;92.40;;;;;;5055693;28;20036;-81
2022/01/22 07:36:22;;;;;;;4.47;3.97;;;4.90;92.30;;;;;;5073697;28;20049;-81
2022/01/22 07:38:49;;;;;;;8.73;5.25;;;4.90;92.40;;;;;;5055401;28;20045;-82
2022/01/22 07:41:17;;;;;;;8.93;5.40;;;5.00;92.30;;;;;;5055952;28;20063;-82
2022/01/22 07:43:51;;;;;;;7.10;5.40;;;5.00;92.70;;;;;;5055685;28;20474;-82
2022/01/22 07:46:25;;;;;;;7.47;5.35;;;5.00;92.30;;;;;;5055060;28;20044;-82
2022/01/22 07:49:06;;;;;;;10.00;4.60;;;5.10;92.10;;;;;;5057946;28;20048;-79
2022/01/22 07:51:42;;;;;;;11.98;5.25;;;5.10;92.30;;;;;;5054896;28;20037;-79
2022/01/22 07:54:08;;;;;;;4.75;4.25;;;5.10;92.20;;;;;;5073874;28;20039;-80
2022/01/22 07:56:35;;;;;;;4.78;4.25;;;5.10;92.00;;;;;;5055060;28;20037;-78
2022/01/22 07:59:03;;;;;;;5.97;4.35;;;5.10;91.90;;;;;;5075564;28;20044;-78
2022/01/22 08:01:33;;;;;;;4.38;3.45;;;5.10;91.80;;;;;;5075227;28;20047;-77
2022/01/22 08:04:23;;;;;;;6.00;3.83;;;5.10;91.60;;;;;;5093784;28;20044;-78
2022/01/22 08:06:58;;;;;;;5.95;4.38;;;5.00;91.70;;;;;;5100349;28;20047;-78
2022/01/22 08:09:45;;;;;;;16.63;5.80;;;5.00;91.70;;;;;;5099584;28;20036;-78
2022/01/22 08:12:20;;;;;;;6.95;4.88;;;5.00;92.00;;;;;;5068918;28;20044;-77
2022/01/22 08:14:47;;;;;;;7.50;5.90;;;5.00;92.20;;;;;;5057787;28;20385;-78
2022/01/22 08:17:14;;;;;;;6.60;5.82;;;5.00;92.00;;;;;;5074896;28;20036;-78
2022/01/22 08:19:40;;;;;;;5.53;4.50;;;5.00;91.80;;;;;;5072485;28;20040;-78
2022/01/22 08:22:33;;;;;;;10.85;5.00;;;5.10;92.00;;;;;;5060478;28;20067;-79
2022/01/22 08:25:19;;;;;;;9.75;4.90;;;5.00;91.90;;;;;;5054547;28;20504;-79
2022/01/22 08:30:28;;;;;;;8.80;5.38;;;5.10;92.00;;;;;;5073820;28;20036;-77
2022/01/22 08:33:07;;;;;;;8.23;4.95;;;5.10;92.00;;;;;;5092647;28;20028;-77
2022/01/22 08:35:53;;;;;;;6.43;5.03;;;5.10;91.90;;;;;;5073871;28;20500;-75
2022/01/22 08:38:22;;;;;;;10.23;4.80;;;5.10;92.70;;;;;;5074235;28;20040;-77
2022/01/22 08:40:50;;;;;;;5.80;4.25;;;5.10;92.60;;;;;;5073701;28;20047;-78
2022/01/22 08:43:17;;;;;;;6.28;5.32;;;5.10;92.80;;;;;;5074593;28;20043;-76
2022/01/22 08:45:44;;;;;;;9.07;4.70;;;5.10;92.60;;;;;;5072617;28;20489;-77
2022/01/22 08:48:10;;;;;;;6.05;4.85;;;5.10;92.80;;;;;;5070873;28;20512;-78
2022/01/22 08:50:37;;;;;;;5.07;3.83;;;5.10;92.80;;;;;;5070957;28;20051;-82
2022/01/22 08:53:03;;;;;;;5.00;4.45;;;5.20;92.80;;;;;;5071029;28;20040;-78
2022/01/22 08:55:30;;;;;;;9.25;4.85;;;5.20;93.10;;;;;;5052745;28;20052;-80
2022/01/22 08:57:56;;;;;;;4.97;4.47;;;5.20;92.70;;;;;;5050162;28;20045;-81
2022/01/22 09:00:35;;;;;;;5.93;3.13;;;5.20;92.50;;;;;;5035607;28;20056;-79
2022/01/22 09:03:09;;;;;;;7.00;4.07;;;5.20;92.60;;;;;;5050404;28;20063;-78
2022/01/22 09:06:08;;;;;;;6.68;4.43;;;5.30;92.80;;;;;;5050509;28;20045;-78
2022/01/22 09:08:50;;;;;;;5.53;4.47;;;5.30;92.70;;;;;;5049876;28;20059;-79
2022/01/22 09:11:20;;;;;;;4.90;3.97;;;5.20;92.50;;;;;;5051105;28;20049;-79
2022/01/22 09:13:57;;;;;;;4.40;4.00;;;5.30;92.90;;;;;;5052436;28;20343;-79
2022/01/22 09:16:28;;;;;;;6.68;4.53;;;5.30;93.10;;;;;;5050442;28;20063;-79
2022/01/22 09:19:00;;;;;;;5.43;4.65;;;5.30;93.10;;;;;;5050098;28;21087;-79
2022/01/22 09:21:27;;;;;;;10.15;5.10;;;5.30;93.40;;;;;;5046173;28;20064;-79
2022/01/22 09:23:53;;;;;;;7.03;4.97;;;5.30;93.80;;;;;;5049144;28;20033;-80
2022/01/22 09:26:19;;;;;;;7.35;4.75;;;5.30;93.30;;;;;;5050427;28;20044;-80
2022/01/22 09:28:47;;;;;;;6.68;5.35;;;5.30;93.50;;;;;;5053526;28;20049;-77
2022/01/22 09:31:14;;;;;;;7.03;5.35;;;5.30;93.90;;;;;;5054284;28;20052;-78
2022/01/22 09:33:43;;;;;;;5.05;4.55;;;5.30;94.00;;;;;;5053378;28;20048;-79
2022/01/22 09:36:13;;;;;;;7.60;4.80;;;5.30;94.90;;;;;;5062771;28;20037;-79
2022/01/22 09:39:15;;;;;;;5.75;5.15;;;5.30;95.00;;;;;;5041999;28;20052;-79
2022/01/22 09:41:54;;;;;;;6.10;4.10;;;5.30;94.60;;;;;;5064030;28;20052;-79
2022/01/22 09:44:43;;;;;;;17.05;5.80;;;5.30;94.40;;;;;;5053121;28;20044;-78
2022/01/22 09:47:27;;;;;;;9.98;5.22;;;5.30;94.80;;;;;;5053348;28;20051;-78
2022/01/22 09:50:04;;;;;;;7.55;4.70;;;5.30;94.40;;;;;;5061801;28;20044;-75
2022/01/22 09:52:51;;;;;;;6.05;4.13;;;5.30;94.40;;;;;;5033954;28;20475;-78
2022/01/22 09:55:24;;;;;;;5.70;3.75;;;5.30;94.40;;;;;;5033611;28;20517;-78
2022/01/22 09:58:16;;;;;;;4.50;3.97;;;5.30;94.60;;;;;;5070401;28;20524;-77
2022/01/22 10:01:21;;;;;;;4.75;4.25;;;5.40;94.90;;;;;;5056753;28;20508;-78
2022/01/22 10:03:48;;;;;;;4.20;3.80;;;5.40;94.80;;;;;;5056532;28;20048;-78
2022/01/22 10:06:49;;;;;;;7.68;4.72;;;5.40;95.10;;;;;;5054561;28;20051;-78
2022/01/22 10:09:26;;;;;;;5.68;4.25;;;5.50;94.90;;;;;;5059127;28;20398;-77
2022/01/22 10:12:23;;;;;;;8.52;4.43;;;5.50;95.10;;;;;;5003668;28;20044;-78
2022/01/22 10:15:08;;;;;;;4.65;4.22;;;5.60;95.40;;;;;;5082235;28;20036;-78
2022/01/22 10:17:52;;;;;;;6.00;4.60;;;5.60;94.90;;;;;;5074883;28;20462;-79
2022/01/22 10:20:24;;;;;;;5.60;4.25;;;5.70;94.80;;;;;;5079580;28;20044;-79
2022/01/22 10:23:02;;;;;;;4.47;4.07;;;5.70;94.60;;;;;;5076973;28;20039;-79
2022/01/22 10:25:35;;;;;;;11.02;5.03;;;5.70;94.80;;;;;;5095410;28;20028;-78
2022/01/22 10:28:11;;;;;;;5.57;3.90;;;5.80;94.80;;;;;;5094637;28;20044;-78
2022/01/22 10:30:40;;;;;;;4.20;3.90;;;5.80;94.20;;;;;;5094691;28;20378;-77
2022/01/22 10:33:30;;;;;;;4.32;3.50;;;5.80;94.30;;;;;;5095010;28;20047;-78
2022/01/22 10:36:21;;;;;;;5.07;4.05;;;5.80;93.90;;;;;;5094416;28;20405;-77
2022/01/22 10:39:21;;;;;;;7.72;3.75;;;5.80;94.00;;;;;;5099498;28;20040;-78
2022/01/22 10:41:48;;;;;;;5.88;4.07;;;5.80;94.10;;;;;;5100305;28;20040;-78
2022/01/22 10:44:19;;;;;;;5.50;3.95;;;5.80;94.20;;;;;;5096849;28;20031;-79
2022/01/22 10:47:02;;;;;;;5.13;4.22;;;5.90;94.00;;;;;;5094327;28;20039;-79
2022/01/22 10:49:30;;;;;;;4.65;4.25;;;5.90;94.50;;;;;;5094060;28;20448;-84
2022/01/22 10:52:07;;;;;;;7.80;5.30;;;6.00;94.30;;;;;;5095001;28;20048;-84
2022/01/22 10:54:36;;;;;;;5.03;4.53;;;6.00;94.10;;;;;;5096045;28;20373;-84
2022/01/22 10:57:17;;;;;;;7.45;4.47;;;6.00;94.30;;;;;;5095431;28;20040;-83
2022/01/22 10:59:49;;;;;;;6.43;4.53;;;6.00;93.80;;;;;;5074111;28;20470;-81
2022/01/22 11:02:19;;;;;;;5.35;4.38;;;6.00;94.10;;;;;;5056429;28;20036;-79
2022/01/22 11:04:46;;;;;;;4.35;3.95;;;6.00;94.40;;;;;;5074198;28;20036;-78
2022/01/22 11:07:18;;;;;;;8.00;4.97;;;6.00;94.50;;;;;;5074814;28;20028;-77
2022/01/22 11:09:45;;;;;;;4.55;4.15;;;6.00;94.30;;;;;;5073854;28;20048;-78
2022/01/22 11:12:12;;;;;;;5.10;4.60;;;6.10;94.30;;;;;;5074338;28;20032;-76
2022/01/22 11:14:40;;;;;;;6.72;4.85;;;6.10;94.20;;;;;;5039087;28;20059;-77
2022/01/22 11:17:07;;;;;;;6.45;4.22;;;6.10;93.90;;;;;;5073494;28;20040;-77
2022/01/22 11:19:35;;;;;;;3.47;2.97;;;6.10;94.30;;;;;;5073881;28;20107;-77
2022/01/22 11:22:10;;;;;;;4.80;4.32;;;6.10;93.80;;;;;;5073256;28;20028;-77
2022/01/22 11:24:39;;;;;;;8.30;4.43;;;6.20;94.00;;;;;;5056107;28;20051;-75
2022/01/22 11:27:08;;;;;;;6.20;4.35;;;6.10;93.80;;;;;;5073889;28;20044;-76
2022/01/22 11:29:37;;;;;;;4.57;4.13;;;6.10;94.00;;;;;;5092453;28;20167;-73
2022/01/22 11:32:08;;;;;;;8.65;4.85;;;6.20;94.00;;;;;;5093714;28;20035;-74
2022/01/22 11:34:37;;;;;;;4.55;4.15;;;6.20;93.90;;;;;;5094039;28;20031;-74
2022/01/22 11:37:27;;;;;;;10.32;4.63;;;6.20;93.90;;;;;;5093265;28;20365;-74
2022/01/22 11:40:14;;;;;;;4.53;4.13;;;6.20;93.80;;;;;;5093426;28;20028;-73
2022/01/22 11:43:10;;;;;;;4.30;3.90;;;6.20;93.90;;;;;;5093171;28;20042;-74
2022/01/22 11:45:52;;;;;;;4.70;3.45;;;6.20;94.00;;;;;;5094002;28;20032;-74
2022/01/22 11:48:26;;;;;;;6.07;3.30;;;6.20;94.00;;;;;;5093376;28;20047;-74
2022/01/22 11:50:55;;;;;;;4.05;3.75;;;6.20;93.70;;;;;;5092816;28;20032;-75
2022/01/22 11:53:30;;;;;;;4.82;4.30;;;6.20;93.90;;;;;;5093789;28;20035;-74
2022/01/22 11:56:11;;;;;;;4.70;4.00;;;6.20;94.00;;;;;;5092524;28;20083;-76
2022/01/22 11:58:59;;;;;;;5.13;3.88;;;6.20;93.80;;;;;;5093553;28;20058;-76
2022/01/22 12:01:40;;;;;;;4.10;3.70;;;6.20;93.80;;;;;;5093599;28;20473;-77
2022/01/22 12:04:08;;;;;;;5.93;5.30;;;6.20;93.80;;;;;;5092652;28;20048;-76
2022/01/22 12:06:36;;;;;;;5.85;4.97;;;6.30;94.20;;;;;;5093619;28;20035;-76
2022/01/22 12:09:25;;;;;;;4.85;3.60;;;6.30;94.00;;;;;;5092903;28;20044;-76
2022/01/22 12:14:48;;;;;;;7.70;3.13;;;6.20;93.40;;;;;;5092534;28;20035;-76
2022/01/22 12:17:24;;;;;;;4.95;4.43;;;6.20;93.30;;;;;;5093229;28;20461;-76
2022/01/22 12:22:30;;;;;;;3.22;2.88;;;6.20;93.40;;;;;;5093139;28;20094;-76
2022/01/22 12:25:01;;;;;;;2.45;2.20;;;6.20;93.20;;;;;;5092481;28;20373;-76
2022/01/22 12:27:45;;;;;;;4.63;2.78;;;6.20;93.10;;;;;;5093222;28;20511;-76
2022/01/22 12:30:13;;;;;;;3.28;2.97;;;6.20;93.00;;;;;;5092998;28;20476;-77
2022/01/22 12:32:47;;;;;;;4.18;3.10;;;6.20;93.10;;;;;;5091966;28;20047;-77
2022/01/22 12:35:31;;;;;;;4.30;3.60;;;6.30;93.10;;;;;;5093008;28;20051;-77
2022/01/22 12:38:22;;;;;;;3.63;2.92;;;6.30;93.50;;;;;;5092274;28;20044;-76
2022/01/22 12:40:56;;;;;;;2.30;1.98;;;6.30;93.10;;;;;;5092029;28;20032;-77
2022/01/22 12:43:30;;;;;;;3.75;3.33;;;6.30;93.10;;;;;;5092903;28;20036;-77
2022/01/22 12:45:59;;;;;;;3.13;2.88;;;6.30;92.70;;;;;;5092328;28;20032;-78
2022/01/22 12:48:31;;;;;;;4.30;3.13;;;6.40;92.70;;;;;;5093302;28;20032;-78
2022/01/22 12:51:05;;;;;;;4.25;3.45;;;6.40;92.70;;;;;;5091990;28;20043;-78
2022/01/22 12:53:33;;;;;;;4.65;3.35;;;6.40;92.70;;;;;;5092369;28;20051;-78
2022/01/22 12:58:29;;;;;;;3.78;3.38;;;6.40;92.70;;;;;;5073784;28;20044;-77
2022/01/22 13:01:12;;;;;;;7.18;6.03;;;6.30;92.60;;;;;;5091515;28;20059;-78
2022/01/22 13:03:41;;;;;;;7.90;3.85;;;6.30;92.70;;;;;;5092455;28;20380;-78
2022/01/22 13:06:07;;;;;;;3.55;2.72;;;6.30;92.40;;;;;;5091786;28;20039;-77
2022/01/22 13:08:57;;;;;;;4.03;3.60;;;6.30;92.50;;;;;;5092841;28;20040;-78
2022/01/22 13:11:46;;;;;;;3.92;3.53;;;6.30;92.40;;;;;;5092611;28;20043;-78
2022/01/22 13:14:18;;;;;;;2.97;2.78;;;6.40;92.70;;;;;;5092344;28;20036;-78
2022/01/22 13:16:49;;;;;;;3.78;2.88;;;6.30;92.60;;;;;;5092202;28;20036;-77
2022/01/22 13:19:16;;;;;;;3.75;3.40;;;6.30;92.40;;;;;;5092452;28;20047;-77
2022/01/22 13:21:50;;;;;;;7.68;4.05;;;6.40;92.50;;;;;;5092060;28;20035;-77
2022/01/22 13:24:22;;;;;;;3.90;3.20;;;6.40;92.20;;;;;;5092137;28;20036;-77
2022/01/22 13:26:58;;;;;;;4.68;3.15;;;6.40;92.10;;;;;;5091444;28;20372;-78
2022/01/22 13:29:24;;;;;;;2.58;2.38;;;6.40;92.30;;;;;;5092198;28;20047;-77
2022/01/22 13:32:17;;;;;;;3.20;2.90;;;6.40;92.10;;;;;;5091586;28;20035;-77
2022/01/22 13:49:32;;;;;;;6.20;5.70;;;6.30;91.50;;;;;;5091870;28;20044;-75
2022/01/22 13:52:04;;;;;;;3.92;3.53;;;6.40;91.70;;;;;;5091450;28;20024;-76
2022/01/22 13:54:38;;;;;;;10.45;4.65;;;6.40;91.60;;;;;;5091770;28;20039;-75
2022/01/22 13:57:10;;;;;;;4.72;3.90;;;6.40;91.60;;;;;;5091382;28;20044;-76
2022/01/22 13:59:45;;;;;;;4.60;3.92;;;6.40;91.40;;;;;;5092121;28;20036;-76
2022/01/22 14:04:49;;;;;;;5.15;4.15;;;6.40;91.30;;;;;;5092023;28;20373;-76
2022/01/22 14:07:16;;;;;;;7.18;3.70;;;6.40;91.50;;;;;;5091228;28;20032;-76
2022/01/22 14:10:11;;;;;;;5.65;4.20;;;6.40;91.60;;;;;;5091893;28;20044;-76
2022/01/22 14:12:51;;;;;;;6.82;3.20;;;6.40;91.40;;;;;;5078946;28;20040;-76
2022/01/22 14:15:24;;;;;;;4.13;3.47;;;6.40;91.20;;;;;;5095439;28;20043;-76
2022/01/22 14:20:59;;;;;;;3.63;2.72;;;6.30;91.50;;;;;;5095482;28;20039;-76
2022/01/22 14:23:36;;;;;;;5.38;2.78;;;6.30;91.40;;;;;;5083434;28;20051;-76
2022/01/22 14:26:27;;;;;;;6.95;6.07;;;6.30;91.30;;;;;;5093998;28;20031;-76
2022/01/22 14:28:58;;;;;;;12.63;8.93;;;6.30;91.10;;;;;;5094211;28;20036;-74
2022/01/22 14:31:44;;;;;;;6.40;4.90;;;6.20;91.20;;;;;;5076465;28;20044;-75
2022/01/22 14:34:31;;;;;;;4.30;3.85;;;6.20;91.40;;;;;;5073817;28;20099;-73
2022/01/22 14:36:59;;;;;;;8.18;6.65;;;6.20;91.50;;;;;;5074033;28;20037;-73
2022/01/22 14:45:20;;;;;;;7.32;6.68;;;6.20;91.40;;;;;;5074801;28;20036;-73
2022/01/22 14:47:56;;;;;;;13.43;5.03;;;6.20;91.50;;;;;;5056680;28;20040;-73
2022/01/22 14:50:22;;;;;;;6.78;6.25;;;6.20;91.60;;;;;;5074248;28;20040;-73
2022/01/22 14:52:56;;;;;;;15.73;11.68;;;6.20;91.40;;;;;;5074380;28;20028;-73
2022/01/22 14:55:24;;;;;;;14.80;10.95;;;6.20;91.40;;;;;;5074389;28;20394;-72
2022/01/22 14:57:51;;;;;;;5.90;5.25;;;6.10;91.40;;;;;;5074722;28;20053;-73
2022/01/22 15:00:18;;;;;;;6.70;5.13;;;6.20;91.40;;;;;;5074408;28;20041;-73
2022/01/22 15:02:46;;;;;;;7.13;5.45;;;6.20;91.40;;;;;;5074807;28;20028;-73
2022/01/22 15:05:14;;;;;;;6.80;5.72;;;6.20;91.40;;;;;;5073576;28;20041;-72
2022/01/22 15:07:43;;;;;;;5.70;5.18;;;6.10;91.50;;;;;;5074173;28;20457;-72
2022/01/22 15:10:11;;;;;;;6.38;5.10;;;6.20;91.90;;;;;;5073298;28;20051;-71
2022/01/22 15:12:38;;;;;;;6.82;5.55;;;6.20;91.70;;;;;;5073939;28;20032;-72
2022/01/22 15:15:07;;;;;;;5.35;4.63;;;6.20;91.70;;;;;;5073491;28;20032;-72
2022/01/22 15:20:15;;;;;;;5.70;5.03;;;6.10;91.60;;;;;;5074525;28;20051;-72
2022/01/22 15:22:41;;;;;;;5.40;4.45;;;6.10;91.50;;;;;;5073662;28;20029;-73
2022/01/22 15:25:08;;;;;;;7.10;4.90;;;6.10;91.40;;;;;;5072808;28;20033;-73